Time;durP1;ratioP1;P1;durP2;ratioP2;P2;SDS_P1;SDS_P2;PMS_P1;PMS_P2;Temp;Humidity;BMP_temperature;BMP_pressure;BME280_temperature;BME280_humidity;BME280_pressure;Samples;Min_cycle;Max_cycle;Signal;HPM_P1;HPM_P2
2022/11/23 00:15:07;;;;;;;3.90;3.70;;;20.60;61.30;;;;;;4900609;29;20511;-61
2022/11/23 00:17:34;;;;;;;4.00;3.80;;;20.50;61.40;;;;;;4900743;29;20463;-63
2022/11/23 00:20:00;;;;;;;3.97;3.87;;;20.50;61.50;;;;;;4923356;28;20485;-62
2022/11/23 00:22:27;;;;;;;3.30;3.20;;;20.50;61.60;;;;;;5032521;28;20446;-63
2022/11/23 00:24:54;;;;;;;3.37;3.37;;;20.50;61.60;;;;;;5039080;28;20446;-62
2022/11/23 00:27:21;;;;;;;3.07;2.97;;;20.50;62.50;;;;;;5039090;28;20457;-63
2022/11/23 00:29:48;;;;;;;3.50;3.40;;;20.50;61.80;;;;;;5041954;28;20448;-63
2022/11/23 00:32:16;;;;;;;3.53;3.43;;;20.50;61.80;;;;;;5056132;28;20449;-63
2022/11/23 00:34:43;;;;;;;3.87;3.70;;;20.50;62.60;;;;;;5056585;28;20450;-63
2022/11/23 00:37:10;;;;;;;3.47;3.37;;;20.50;61.80;;;;;;5057960;28;20454;-63
2022/11/23 00:39:36;;;;;;;3.27;3.17;;;20.50;61.90;;;;;;5056456;28;20512;-65
2022/11/23 00:42:03;;;;;;;3.27;3.17;;;20.50;61.90;;;;;;5045318;28;20436;-61
2022/11/23 00:44:30;;;;;;;3.17;3.07;;;20.50;61.90;;;;;;5059575;28;20646;-61
2022/11/23 00:46:57;;;;;;;3.70;3.60;;;20.50;61.90;;;;;;5059617;28;20453;-64
2022/11/23 00:49:25;;;;;;;3.50;3.40;;;20.50;62.10;;;;;;5058835;28;20449;-62
2022/11/23 00:51:52;;;;;;;3.40;3.30;;;20.50;62.10;;;;;;5058678;28;20449;-64
2022/11/23 00:54:19;;;;;;;2.70;2.70;;;20.50;62.20;;;;;;5058800;28;20449;-63
2022/11/23 00:56:46;;;;;;;3.50;3.40;;;20.40;62.10;;;;;;5059097;28;20452;-61
2022/11/23 00:59:12;;;;;;;3.77;3.67;;;20.40;62.10;;;;;;5059376;28;20465;-61
2022/11/23 01:01:39;;;;;;;3.33;3.23;;;20.50;62.30;;;;;;5039717;28;20445;-62
2022/11/23 01:04:08;;;;;;;3.03;3.00;;;20.40;63.00;;;;;;5037696;28;20437;-64
2022/11/23 01:06:38;;;;;;;3.23;2.93;;;20.40;62.20;;;;;;5029894;28;20481;-63
2022/11/23 01:09:08;;;;;;;3.10;3.00;;;20.40;62.40;;;;;;5013804;28;20445;-65
2022/11/23 01:11:35;;;;;;;3.53;3.43;;;20.40;62.60;;;;;;5031174;28;20475;-64
2022/11/23 01:14:02;;;;;;;3.90;3.67;;;20.40;62.50;;;;;;5033307;28;20437;-63
2022/11/23 01:16:31;;;;;;;3.13;3.13;;;20.40;62.50;;;;;;5033326;28;20465;-64
2022/11/23 01:19:00;;;;;;;3.10;3.10;;;20.40;62.50;;;;;;5023103;28;21042;-64
2022/11/23 01:21:30;;;;;;;2.87;2.87;;;20.40;62.50;;;;;;5013431;28;20446;-64
2022/11/23 01:23:59;;;;;;;2.70;2.60;;;20.40;62.70;;;;;;5013566;28;20807;-64
2022/11/23 01:26:26;;;;;;;2.90;2.90;;;20.30;62.70;;;;;;5013300;28;20508;-64
2022/11/23 01:28:53;;;;;;;3.00;3.00;;;20.30;62.70;;;;;;5021734;28;20449;-64
2022/11/23 01:31:21;;;;;;;3.10;3.10;;;20.30;62.80;;;;;;5033072;28;20479;-63
2022/11/23 01:33:52;;;;;;;3.20;3.10;;;20.30;62.80;;;;;;5032922;28;20485;-63
2022/11/23 01:36:21;;;;;;;3.60;3.50;;;20.30;63.50;;;;;;5033171;28;20477;-64
2022/11/23 01:38:49;;;;;;;3.60;3.50;;;20.30;62.80;;;;;;5024516;28;20861;-64
2022/11/23 01:41:20;;;;;;;3.20;3.10;;;20.30;62.90;;;;;;5012996;28;20812;-64
2022/11/23 01:43:48;;;;;;;3.70;3.60;;;20.30;62.90;;;;;;5013087;28;20442;-63
2022/11/23 01:46:15;;;;;;;3.20;3.10;;;20.30;63.00;;;;;;5013053;28;20901;-63
2022/11/23 01:48:46;;;;;;;3.90;3.80;;;20.30;63.10;;;;;;5019632;28;20488;-63
2022/11/23 01:51:15;;;;;;;2.93;2.93;;;20.30;63.10;;;;;;5032736;28;20986;-63
2022/11/23 01:53:43;;;;;;;3.80;3.70;;;20.30;63.20;;;;;;5032611;28;20928;-64
2022/11/23 01:56:15;;;;;;;3.43;3.27;;;20.30;63.20;;;;;;5032567;28;20457;-64
2022/11/23 01:58:46;;;;;;;3.20;3.10;;;20.30;63.20;;;;;;5031817;28;20460;-63
2022/11/23 02:01:14;;;;;;;3.27;3.17;;;20.30;63.20;;;;;;5032485;28;20854;-63
2022/11/23 02:03:43;;;;;;;3.37;3.27;;;20.30;63.20;;;;;;5032546;28;20474;-63
2022/11/23 02:06:14;;;;;;;3.37;3.27;;;20.30;63.30;;;;;;5032288;28;20465;-63
2022/11/23 02:08:41;;;;;;;3.10;3.00;;;20.30;63.40;;;;;;5025913;28;20537;-64
2022/11/23 02:11:09;;;;;;;2.90;2.90;;;20.30;63.40;;;;;;5012681;28;20909;-64
2022/11/23 02:13:36;;;;;;;3.20;3.20;;;20.30;63.40;;;;;;5012552;28;20446;-63
2022/11/23 02:16:04;;;;;;;3.23;3.23;;;20.30;63.50;;;;;;5013631;28;20488;-63
2022/11/23 02:18:34;;;;;;;3.27;3.20;;;20.30;63.40;;;;;;5012524;28;21017;-64
2022/11/23 02:21:02;;;;;;;3.63;3.53;;;20.20;63.30;;;;;;5012273;28;20481;-63
2022/11/23 02:23:36;;;;;;;3.20;3.20;;;20.20;63.30;;;;;;5012400;28;20540;-64
2022/11/23 02:26:07;;;;;;;3.17;3.10;;;20.20;63.30;;;;;;5030740;28;20504;-64
2022/11/23 02:28:38;;;;;;;3.53;3.43;;;20.20;63.50;;;;;;5025932;28;20442;-64
2022/11/23 02:31:05;;;;;;;3.17;3.00;;;20.20;63.50;;;;;;5012241;28;20528;-64
2022/11/23 02:33:32;;;;;;;2.70;2.70;;;20.20;63.60;;;;;;5012282;28;20537;-63
2022/11/23 02:36:01;;;;;;;2.90;2.90;;;20.30;63.60;;;;;;5029961;28;20464;-64
2022/11/23 02:38:31;;;;;;;3.10;3.10;;;20.30;63.70;;;;;;5031948;28;20453;-63
2022/11/23 02:40:58;;;;;;;3.10;3.00;;;20.30;63.80;;;;;;5031021;28;20481;-63
2022/11/23 02:43:27;;;;;;;3.00;3.00;;;20.20;63.70;;;;;;5031767;28;20445;-64
2022/11/23 02:45:56;;;;;;;3.27;3.17;;;20.20;63.80;;;;;;5024888;28;20473;-63
2022/11/23 02:48:23;;;;;;;3.40;3.30;;;20.20;63.90;;;;;;5016983;28;21016;-62
2022/11/23 02:50:49;;;;;;;3.00;3.00;;;20.20;63.90;;;;;;5011940;28;20534;-63
2022/11/23 02:53:18;;;;;;;2.60;2.60;;;20.20;63.90;;;;;;5011705;28;20965;-63
2022/11/23 02:55:45;;;;;;;3.10;3.00;;;20.20;63.90;;;;;;5016032;28;20477;-63
2022/11/23 02:58:12;;;;;;;2.60;2.60;;;20.20;64.00;;;;;;5012085;28;20490;-63
2022/11/23 03:00:40;;;;;;;3.13;3.03;;;20.20;63.90;;;;;;5012822;28;20478;-63
2022/11/23 03:03:07;;;;;;;2.73;2.70;;;20.20;63.90;;;;;;5011603;28;20445;-63
2022/11/23 03:05:34;;;;;;;3.23;3.13;;;20.20;64.00;;;;;;5011803;28;20488;-63
2022/11/23 03:08:01;;;;;;;2.93;2.73;;;20.20;64.10;;;;;;5011613;28;20489;-63
2022/11/23 03:10:28;;;;;;;2.80;2.70;;;20.20;64.10;;;;;;5011509;28;20442;-63
2022/11/23 03:12:56;;;;;;;2.90;2.80;;;20.20;64.10;;;;;;5011633;28;20815;-64
2022/11/23 03:15:23;;;;;;;3.27;3.27;;;20.20;64.20;;;;;;5011989;28;20446;-64
2022/11/23 03:17:51;;;;;;;2.90;2.90;;;20.20;64.20;;;;;;5011690;28;20469;-63
2022/11/23 03:20:18;;;;;;;3.13;2.93;;;20.20;64.30;;;;;;5011409;28;20516;-63
2022/11/23 03:22:45;;;;;;;3.70;3.50;;;20.20;64.40;;;;;;5011384;28;20456;-63
2022/11/23 03:25:12;;;;;;;2.70;2.60;;;20.20;64.40;;;;;;5011681;28;20449;-63
2022/11/23 03:27:39;;;;;;;3.20;3.00;;;20.10;64.30;;;;;;5011531;28;20474;-64
2022/11/23 03:30:08;;;;;;;3.10;3.10;;;20.20;64.50;;;;;;5011586;28;20945;-63
2022/11/23 03:32:35;;;;;;;3.20;3.10;;;20.20;64.50;;;;;;5011475;28;20525;-63
2022/11/23 03:35:04;;;;;;;3.47;3.37;;;20.20;64.40;;;;;;5011549;28;20548;-63
2022/11/23 03:37:31;;;;;;;3.30;3.10;;;20.20;64.50;;;;;;5011195;28;20505;-63
2022/11/23 03:39:58;;;;;;;2.90;2.80;;;20.20;64.50;;;;;;5011456;28;20577;-63
2022/11/23 03:42:24;;;;;;;3.00;2.80;;;20.20;64.50;;;;;;5011287;28;20457;-64
2022/11/23 03:44:51;;;;;;;2.77;2.77;;;20.20;64.50;;;;;;5011560;28;20470;-64
2022/11/23 03:47:18;;;;;;;3.00;3.00;;;20.20;64.50;;;;;;5011189;28;20461;-63
2022/11/23 03:49:45;;;;;;;2.70;2.70;;;20.20;64.40;;;;;;5011458;28;20478;-63
2022/11/23 03:52:13;;;;;;;2.80;2.70;;;20.20;64.40;;;;;;5012630;28;20543;-64
2022/11/23 03:54:40;;;;;;;2.87;2.77;;;20.20;64.40;;;;;;5015176;28;20451;-63
2022/11/23 03:57:07;;;;;;;3.23;3.13;;;20.20;64.40;;;;;;5014765;28;20832;-64
2022/11/23 03:59:33;;;;;;;2.90;2.80;;;20.20;64.50;;;;;;5015030;28;20477;-63
2022/11/23 04:02:00;;;;;;;3.53;3.43;;;20.20;64.50;;;;;;5014851;28;20911;-64
2022/11/23 04:04:27;;;;;;;3.10;3.00;;;20.20;64.50;;;;;;5015037;28;20441;-63
2022/11/23 04:06:54;;;;;;;3.07;2.97;;;20.20;64.50;;;;;;5014594;28;20481;-63
2022/11/23 04:09:22;;;;;;;3.40;3.20;;;20.20;64.50;;;;;;5014853;28;20452;-64
2022/11/23 04:11:49;;;;;;;3.20;3.10;;;20.20;64.30;;;;;;5014678;28;20477;-63
2022/11/23 04:14:16;;;;;;;3.10;3.00;;;20.30;64.40;;;;;;5014905;28;20445;-63
2022/11/23 04:16:42;;;;;;;2.77;2.77;;;20.30;64.40;;;;;;5014543;28;20474;-63
2022/11/23 04:19:09;;;;;;;3.20;3.10;;;20.30;64.40;;;;;;5014851;28;20452;-63
2022/11/23 04:21:36;;;;;;;3.20;3.10;;;20.30;64.40;;;;;;5014511;28;20844;-64
2022/11/23 04:24:03;;;;;;;2.60;2.60;;;20.30;64.40;;;;;;5014426;28;20445;-64
2022/11/23 04:26:32;;;;;;;3.43;3.33;;;20.30;64.40;;;;;;5014555;28;20983;-63
2022/11/23 04:28:58;;;;;;;3.30;3.23;;;20.30;64.40;;;;;;5014145;28;20446;-64
2022/11/23 04:31:25;;;;;;;3.67;3.53;;;20.30;64.40;;;;;;5014154;28;20459;-64
2022/11/23 04:33:52;;;;;;;3.30;3.20;;;20.30;64.40;;;;;;5014489;28;20446;-64
2022/11/23 04:36:19;;;;;;;3.40;3.40;;;20.30;64.30;;;;;;5014041;28;20472;-64
2022/11/23 04:38:46;;;;;;;3.17;3.07;;;20.30;64.90;;;;;;5022162;28;20451;-64
2022/11/23 04:41:12;;;;;;;3.17;3.17;;;20.30;64.90;;;;;;5033884;28;20507;-64
2022/11/23 04:43:40;;;;;;;3.40;3.30;;;20.30;65.10;;;;;;5034078;28;20449;-64
2022/11/23 04:46:07;;;;;;;3.40;3.40;;;20.30;65.10;;;;;;5033991;28;21179;-64
2022/11/23 04:48:34;;;;;;;4.00;3.73;;;20.30;65.40;;;;;;5033550;28;20464;-65
2022/11/23 04:51:01;;;;;;;3.60;3.60;;;20.30;65.30;;;;;;5033654;28;20528;-65
2022/11/23 04:53:28;;;;;;;3.50;3.50;;;20.30;65.30;;;;;;5033796;28;20536;-64
2022/11/23 04:55:54;;;;;;;3.87;3.77;;;20.30;65.30;;;;;;5033829;28;20815;-64
2022/11/23 04:58:21;;;;;;;3.83;3.73;;;20.40;65.40;;;;;;5016147;28;20542;-64
2022/11/23 05:00:49;;;;;;;3.30;3.30;;;20.40;65.40;;;;;;5014192;28;20496;-65
2022/11/23 05:03:16;;;;;;;3.83;3.73;;;20.40;65.50;;;;;;5012985;28;20450;-64
2022/11/23 05:05:43;;;;;;;4.33;4.23;;;20.40;65.40;;;;;;5013702;28;20478;-64
2022/11/23 05:08:11;;;;;;;3.70;3.70;;;20.40;65.40;;;;;;5025736;28;20465;-64
2022/11/23 05:10:38;;;;;;;3.80;3.70;;;20.40;65.50;;;;;;5033633;28;20448;-64
2022/11/23 05:13:04;;;;;;;4.13;4.03;;;20.40;65.50;;;;;;5033278;28;20936;-64
2022/11/23 05:15:31;;;;;;;4.00;3.90;;;20.40;65.40;;;;;;5033446;28;20476;-64
2022/11/23 05:18:02;;;;;;;4.47;4.07;;;20.40;65.10;;;;;;5019484;28;20494;-64
2022/11/23 05:20:30;;;;;;;6.23;5.73;;;20.40;64.90;;;;;;5013448;28;20509;-64
2022/11/23 05:22:57;;;;;;;6.93;5.90;;;20.50;64.90;;;;;;5020294;28;20937;-64
2022/11/23 05:25:24;;;;;;;13.40;6.83;;;20.60;65.00;;;;;;5033266;28;20441;-64
2022/11/23 05:27:52;;;;;;;19.93;7.77;;;20.60;66.20;;;;;;5020295;28;21065;-64
2022/11/23 05:30:19;;;;;;;16.03;8.17;;;20.60;70.20;;;;;;5013631;28;20444;-65
2022/11/23 05:32:46;;;;;;;9.70;7.40;;;20.60;74.30;;;;;;5013066;28;20481;-65
2022/11/23 05:35:14;;;;;;;14.70;7.20;;;20.60;75.90;;;;;;5013375;28;20881;-64
2022/11/23 05:37:41;;;;;;;11.40;7.07;;;20.70;75.80;;;;;;5023150;28;20472;-64
2022/11/23 05:40:09;;;;;;;16.60;8.67;;;20.60;75.40;;;;;;5031114;28;20563;-66
2022/11/23 05:42:36;;;;;;;11.60;7.00;;;20.70;76.30;;;;;;5022013;28;20968;-66
2022/11/23 05:45:04;;;;;;;13.83;8.50;;;20.80;76.00;;;;;;5013148;28;20442;-67
2022/11/23 05:47:31;;;;;;;12.97;8.80;;;20.90;75.50;;;;;;5013064;28;20473;-66
2022/11/23 05:49:58;;;;;;;17.60;8.10;;;21.10;74.50;;;;;;5012994;28;20456;-67
2022/11/23 05:52:26;;;;;;;11.07;5.90;;;21.20;73.30;;;;;;5012797;28;20529;-67
2022/11/23 05:54:53;;;;;;;7.30;6.47;;;21.20;72.30;;;;;;5012905;28;20448;-67
2022/11/23 05:57:21;;;;;;;9.47;6.60;;;21.30;71.40;;;;;;5012836;28;20501;-67
2022/11/23 05:59:48;;;;;;;10.50;7.30;;;21.30;70.50;;;;;;5012723;28;20965;-66
2022/11/23 06:02:15;;;;;;;8.97;7.17;;;21.30;69.80;;;;;;5012867;28;20545;-67
2022/11/23 06:04:42;;;;;;;19.23;8.50;;;21.40;69.40;;;;;;5012808;28;20485;-67
2022/11/23 06:07:08;;;;;;;16.20;7.10;;;21.40;68.90;;;;;;5012574;28;20482;-66
2022/11/23 06:09:37;;;;;;;15.30;8.97;;;21.40;68.30;;;;;;5012784;28;20448;-66
2022/11/23 06:12:04;;;;;;;9.17;8.10;;;21.40;67.80;;;;;;5012347;28;20450;-66
2022/11/23 06:14:31;;;;;;;8.53;6.83;;;21.40;67.40;;;;;;5012580;28;20873;-66
2022/11/23 06:16:57;;;;;;;12.10;6.83;;;21.40;66.90;;;;;;5012561;28;20462;-67
2022/11/23 06:19:24;;;;;;;9.07;8.27;;;21.40;66.60;;;;;;5012491;28;20446;-65
2022/11/23 06:21:51;;;;;;;8.27;6.20;;;21.40;66.30;;;;;;5012229;28;20488;-67
2022/11/23 06:24:18;;;;;;;9.30;7.70;;;21.40;66.00;;;;;;5012498;28;20873;-67
2022/11/23 06:26:46;;;;;;;8.40;6.60;;;21.40;65.70;;;;;;5012366;28;20466;-66
2022/11/23 06:29:13;;;;;;;7.40;6.70;;;21.40;65.40;;;;;;5012345;28;20442;-66
2022/11/23 06:31:40;;;;;;;8.27;6.00;;;21.40;65.20;;;;;;5012189;28;20438;-66
2022/11/23 06:34:07;;;;;;;8.33;5.83;;;21.40;64.90;;;;;;5012303;28;20448;-66
2022/11/23 06:36:34;;;;;;;9.13;6.80;;;21.40;64.80;;;;;;5012162;28;20572;-67
2022/11/23 06:39:00;;;;;;;6.63;6.23;;;21.40;64.50;;;;;;5012246;28;20908;-66
2022/11/23 06:41:27;;;;;;;9.13;8.40;;;21.40;64.40;;;;;;5011905;28;20482;-67
2022/11/23 06:43:56;;;;;;;7.13;6.43;;;21.40;64.10;;;;;;5012056;28;20886;-66
2022/11/23 06:46:22;;;;;;;7.57;6.87;;;21.40;64.00;;;;;;5011954;28;21083;-67
2022/11/23 06:48:49;;;;;;;7.23;6.63;;;21.40;63.80;;;;;;5011962;28;20937;-66
2022/11/23 06:51:16;;;;;;;7.03;6.37;;;21.40;63.70;;;;;;5011923;28;20450;-66
2022/11/23 06:53:43;;;;;;;8.27;5.90;;;21.40;63.60;;;;;;5011994;28;20482;-67
2022/11/23 06:56:11;;;;;;;6.23;5.73;;;21.40;63.40;;;;;;5012189;28;20548;-67
2022/11/23 06:58:38;;;;;;;7.27;6.73;;;21.40;63.30;;;;;;5011974;28;20524;-67
2022/11/23 07:01:08;;;;;;;7.43;6.40;;;21.40;63.20;;;;;;5011803;28;20833;-67
2022/11/23 07:03:35;;;;;;;9.63;6.20;;;21.40;63.00;;;;;;5012032;28;20442;-67
2022/11/23 07:06:05;;;;;;;6.47;5.90;;;21.40;63.00;;;;;;5038474;23;20557;-59
2022/11/23 07:08:32;;;;;;;5.97;5.57;;;21.30;62.70;;;;;;5031546;28;20450;-59
2022/11/23 07:11:01;;;;;;;5.80;5.33;;;21.30;62.60;;;;;;5012173;28;20820;-58
2022/11/23 07:13:28;;;;;;;6.23;5.83;;;21.30;62.40;;;;;;5011820;28;20930;-58
2022/11/23 07:15:55;;;;;;;6.17;5.67;;;21.30;62.40;;;;;;5011936;28;20441;-61
2022/11/23 07:18:23;;;;;;;7.73;7.10;;;21.30;62.30;;;;;;5011770;28;20853;-59
2022/11/23 07:20:50;;;;;;;6.93;6.37;;;21.20;62.20;;;;;;5011563;28;21098;-58
2022/11/23 07:23:17;;;;;;;5.40;4.90;;;21.20;62.00;;;;;;5011743;28;20532;-59
2022/11/23 07:25:44;;;;;;;6.17;5.67;;;21.20;62.00;;;;;;5011669;28;20491;-56
2022/11/23 07:28:12;;;;;;;5.93;5.53;;;21.20;62.00;;;;;;5014708;28;20465;-58
2022/11/23 07:30:39;;;;;;;5.70;5.27;;;21.20;61.90;;;;;;5015682;28;20471;-58
2022/11/23 07:33:08;;;;;;;6.00;5.70;;;21.20;61.90;;;;;;5015391;28;20485;-57
2022/11/23 07:35:37;;;;;;;6.43;5.80;;;21.20;62.70;;;;;;5015765;28;21013;-61
2022/11/23 07:38:06;;;;;;;6.40;6.00;;;21.20;61.80;;;;;;5015418;28;20544;-56
2022/11/23 07:40:33;;;;;;;10.23;6.90;;;21.10;61.70;;;;;;5015339;28;20462;-59
2022/11/23 07:43:01;;;;;;;6.33;5.93;;;21.10;61.70;;;;;;5015288;28;20448;-57
2022/11/23 07:45:28;;;;;;;5.57;5.30;;;21.10;61.60;;;;;;5015471;28;20528;-59
2022/11/23 07:47:59;;;;;;;6.37;5.97;;;21.10;61.60;;;;;;5015061;28;20483;-59
2022/11/23 07:50:26;;;;;;;5.57;5.27;;;21.10;61.60;;;;;;5015268;28;20445;-58
2022/11/23 07:52:54;;;;;;;7.53;6.80;;;21.00;61.40;;;;;;5014944;28;20446;-62
2022/11/23 07:55:22;;;;;;;5.53;5.20;;;21.00;61.40;;;;;;5015124;28;20448;-62
2022/11/23 07:57:53;;;;;;;6.27;5.13;;;21.00;61.30;;;;;;5015331;28;20466;-57
2022/11/23 08:00:20;;;;;;;5.53;5.23;;;21.00;62.10;;;;;;5015145;28;20446;-62
2022/11/23 08:02:47;;;;;;;5.30;5.00;;;21.00;61.30;;;;;;5015823;28;20564;-57
2022/11/23 08:05:14;;;;;;;5.80;5.40;;;21.00;62.00;;;;;;5015369;28;20474;-59
2022/11/23 08:07:41;;;;;;;5.03;4.90;;;20.90;61.10;;;;;;5014891;28;20934;-59
2022/11/23 08:10:10;;;;;;;5.60;5.30;;;20.90;61.10;;;;;;5015009;28;20545;-55
2022/11/23 08:12:37;;;;;;;6.27;5.90;;;20.90;61.20;;;;;;5014569;28;20975;-56
2022/11/23 08:15:04;;;;;;;5.73;5.43;;;20.90;61.20;;;;;;5014793;28;20438;-62
2022/11/23 08:17:31;;;;;;;4.80;4.60;;;20.90;61.20;;;;;;5014670;28;20973;-57
2022/11/23 08:19:58;;;;;;;5.83;5.53;;;20.90;61.20;;;;;;5014841;28;20450;-59
2022/11/23 08:22:25;;;;;;;5.93;5.70;;;20.90;61.20;;;;;;5014299;28;20483;-59
2022/11/23 08:24:52;;;;;;;5.70;5.40;;;20.90;61.20;;;;;;5014676;28;20445;-61
2022/11/23 08:27:21;;;;;;;5.17;4.97;;;20.80;60.90;;;;;;5014544;28;20471;-54
2022/11/23 08:29:47;;;;;;;5.47;5.27;;;20.80;61.00;;;;;;5014650;28;20450;-57
2022/11/23 08:32:14;;;;;;;4.80;4.60;;;20.80;61.00;;;;;;5014334;28;20469;-61
2022/11/23 08:34:42;;;;;;;5.73;5.33;;;20.80;61.00;;;;;;5014515;28;20882;-57
2022/11/23 08:37:09;;;;;;;5.77;5.37;;;20.80;60.90;;;;;;5014549;28;20866;-59
2022/11/23 08:39:36;;;;;;;5.20;5.00;;;20.80;60.90;;;;;;5013143;28;20529;-57
2022/11/23 08:42:03;;;;;;;5.53;5.33;;;20.80;60.90;;;;;;5014136;28;20492;-60
2022/11/23 08:44:31;;;;;;;5.43;5.23;;;20.70;60.80;;;;;;5014224;28;20457;-58
2022/11/23 08:46:58;;;;;;;5.70;5.50;;;20.70;60.70;;;;;;5014343;28;20564;-61
2022/11/23 08:49:25;;;;;;;5.53;5.43;;;20.70;60.70;;;;;;5014286;28;20489;-61
2022/11/23 08:51:53;;;;;;;4.90;4.70;;;20.70;61.50;;;;;;5014345;28;20438;-58
2022/11/23 08:54:22;;;;;;;5.17;4.90;;;20.70;60.80;;;;;;5014090;28;20458;-57
2022/11/23 08:56:49;;;;;;;5.50;5.20;;;20.60;60.60;;;;;;5014252;28;20500;-56
2022/11/23 08:59:16;;;;;;;5.47;5.27;;;20.60;60.60;;;;;;5014053;28;20466;-58
2022/11/23 09:01:44;;;;;;;5.63;5.40;;;20.60;60.60;;;;;;5013718;28;20489;-62
2022/11/23 09:04:11;;;;;;;5.63;5.43;;;20.60;60.60;;;;;;5013924;28;20537;-58
2022/11/23 09:06:38;;;;;;;5.73;5.60;;;20.60;60.60;;;;;;5013796;28;20821;-58
2022/11/23 09:09:05;;;;;;;5.07;4.97;;;20.60;60.50;;;;;;5013766;28;20544;-59
2022/11/23 09:11:32;;;;;;;5.20;5.00;;;20.60;60.50;;;;;;5013894;28;20492;-59
2022/11/23 09:13:59;;;;;;;5.60;5.30;;;20.60;60.50;;;;;;5013797;28;20453;-58
2022/11/23 09:16:25;;;;;;;5.37;5.07;;;20.60;60.50;;;;;;5013515;28;20867;-61
2022/11/23 09:18:56;;;;;;;5.90;5.70;;;20.60;60.50;;;;;;5013792;28;20536;-61
2022/11/23 09:21:28;;;;;;;5.07;4.90;;;20.50;60.30;;;;;;5014634;28;20513;-62
2022/11/23 09:23:55;;;;;;;5.23;4.90;;;20.50;60.30;;;;;;5013773;28;20454;-58
2022/11/23 09:26:22;;;;;;;5.40;5.20;;;20.50;60.40;;;;;;5013463;28;20465;-60
2022/11/23 09:28:48;;;;;;;6.20;6.00;;;20.50;60.40;;;;;;5013716;28;20976;-61
2022/11/23 09:31:15;;;;;;;5.57;5.47;;;20.50;60.50;;;;;;5013247;28;20442;-57
2022/11/23 09:33:42;;;;;;;6.00;5.80;;;20.40;60.30;;;;;;5013383;28;20448;-60
2022/11/23 09:36:10;;;;;;;5.97;5.67;;;20.40;60.40;;;;;;5013291;28;20469;-58
2022/11/23 09:38:37;;;;;;;4.97;4.87;;;20.40;60.60;;;;;;5013426;28;20450;-59
2022/11/23 09:41:16;;;;;;;5.60;5.30;;;20.40;60.60;;;;;;5013066;28;20515;-56
2022/11/23 09:43:51;;;;;;;5.07;4.90;;;20.40;60.60;;;;;;5013173;28;20525;-56
2022/11/23 09:46:27;;;;;;;4.80;4.70;;;20.40;60.60;;;;;;5013734;28;20553;-58
2022/11/23 09:49:12;;;;;;;5.90;5.70;;;20.40;60.60;;;;;;5013084;28;20532;-56
2022/11/23 09:51:42;;;;;;;5.10;5.00;;;20.40;61.30;;;;;;5012871;28;20884;-62
2022/11/23 09:54:22;;;;;;;5.83;5.43;;;20.40;60.60;;;;;;5013044;28;20449;-57
2022/11/23 09:56:50;;;;;;;5.23;5.03;;;20.40;60.60;;;;;;5012876;28;20466;-53
2022/11/23 09:59:30;;;;;;;5.03;4.83;;;20.40;60.50;;;;;;5012903;28;20489;-59
2022/11/23 10:01:57;;;;;;;5.63;5.43;;;20.40;61.30;;;;;;5012603;28;20492;-61
2022/11/23 10:04:25;;;;;;;4.90;4.80;;;20.40;60.50;;;;;;5012818;28;20454;-57
2022/11/23 10:06:59;;;;;;;5.83;5.27;;;20.40;60.50;;;;;;5012600;28;20564;-59
2022/11/23 10:09:37;;;;;;;5.53;5.30;;;20.40;60.50;;;;;;5012721;28;20488;-57
2022/11/23 10:12:26;;;;;;;5.13;4.93;;;20.40;60.50;;;;;;5012828;28;20446;-56
2022/11/23 10:15:09;;;;;;;4.93;4.73;;;20.40;61.20;;;;;;5012592;28;20528;-58
2022/11/23 10:18:10;;;;;;;4.90;4.80;;;20.30;60.30;;;;;;5012655;28;20927;-55
2022/11/23 10:20:54;;;;;;;6.00;5.80;;;20.30;60.40;;;;;;5007481;28;20453;-52
2022/11/23 10:23:35;;;;;;;5.63;5.40;;;20.30;60.40;;;;;;5012654;28;20482;-55
2022/11/23 10:26:01;;;;;;;5.13;5.03;;;20.30;60.40;;;;;;5012639;28;20456;-62
2022/11/23 10:28:31;;;;;;;5.40;5.13;;;20.30;60.40;;;;;;5012400;28;20446;-58
2022/11/23 10:31:07;;;;;;;4.73;4.63;;;20.30;60.40;;;;;;5012342;28;20504;-58
2022/11/23 10:33:41;;;;;;;5.17;4.87;;;20.30;60.40;;;;;;5012229;28;20529;-57
2022/11/23 10:36:09;;;;;;;5.10;5.00;;;20.30;60.30;;;;;;5012231;28;20533;-60
2022/11/23 10:38:38;;;;;;;5.03;4.83;;;20.30;60.30;;;;;;5012281;28;20884;-60
2022/11/23 10:41:08;;;;;;;4.73;4.63;;;20.30;60.30;;;;;;5012081;28;20456;-60
2022/11/23 10:43:41;;;;;;;5.47;5.27;;;20.30;60.30;;;;;;5011998;28;20482;-59
2022/11/23 10:46:27;;;;;;;5.20;4.80;;;20.30;60.20;;;;;;5012130;28;20929;-57
2022/11/23 10:48:54;;;;;;;5.27;4.97;;;20.30;60.20;;;;;;5012145;28;20449;-58
2022/11/23 10:51:27;;;;;;;5.30;4.93;;;20.30;60.20;;;;;;5011991;28;20478;-59
2022/11/23 10:53:59;;;;;;;4.80;4.70;;;20.30;60.20;;;;;;5012288;28;20450;-57
2022/11/23 10:56:26;;;;;;;5.20;5.00;;;20.30;60.30;;;;;;5012007;28;20577;-55
2022/11/23 10:58:53;;;;;;;5.83;5.63;;;20.30;60.30;;;;;;5012070;28;20541;-57
2022/11/23 11:01:23;;;;;;;6.33;6.03;;;20.30;60.20;;;;;;5011113;28;20549;-57
2022/11/23 11:03:50;;;;;;;6.00;5.67;;;20.30;60.20;;;;;;5011941;28;20945;-57
2022/11/23 11:06:23;;;;;;;5.73;5.33;;;20.30;60.20;;;;;;5011694;28;20477;-59
2022/11/23 11:08:53;;;;;;;5.10;4.90;;;20.30;60.10;;;;;;5014514;28;20449;-59
2022/11/23 11:11:26;;;;;;;4.83;4.63;;;20.30;60.20;;;;;;5030604;28;20536;-67
2022/11/23 11:14:03;;;;;;;5.13;4.93;;;20.30;60.20;;;;;;5031361;28;20480;-56
2022/11/23 11:16:32;;;;;;;5.53;5.30;;;20.30;60.90;;;;;;5031655;28;20464;-59
2022/11/23 11:18:59;;;;;;;5.53;5.33;;;20.30;61.60;;;;;;5031157;28;20995;-60
2022/11/23 11:21:32;;;;;;;5.87;5.57;;;20.40;62.40;;;;;;5031580;28;20456;-61
2022/11/23 11:24:02;;;;;;;5.33;5.13;;;20.40;62.00;;;;;;5031286;28;20444;-60
2022/11/23 11:26:31;;;;;;;5.50;5.30;;;20.50;63.80;;;;;;5031288;28;20824;-60
2022/11/23 11:29:01;;;;;;;5.43;5.23;;;20.50;62.90;;;;;;5030967;28;20449;-62
2022/11/23 11:31:45;;;;;;;5.53;5.33;;;20.60;62.70;;;;;;5031048;28;20536;-61
2022/11/23 11:34:20;;;;;;;5.10;5.00;;;20.60;62.40;;;;;;5031299;28;20535;-61
2022/11/23 11:36:55;;;;;;;5.53;5.43;;;20.70;62.10;;;;;;5031513;28;20544;-61
2022/11/23 11:39:28;;;;;;;5.77;5.47;;;20.70;61.80;;;;;;5031206;28;20857;-60
2022/11/23 11:42:00;;;;;;;5.00;4.80;;;20.80;61.40;;;;;;5030762;28;20512;-57
2022/11/23 11:44:27;;;;;;;5.63;5.53;;;20.80;61.30;;;;;;5031326;28;20868;-59
2022/11/23 11:47:00;;;;;;;4.80;4.70;;;20.90;61.30;;;;;;5031194;28;20890;-57
2022/11/23 11:49:31;;;;;;;5.70;5.40;;;20.90;61.80;;;;;;5031154;28;20524;-62
2022/11/23 11:52:05;;;;;;;5.30;5.10;;;20.90;61.20;;;;;;5031021;28;20543;-61
2022/11/23 11:54:37;;;;;;;4.97;4.87;;;21.00;61.20;;;;;;5031193;28;21158;-64
2022/11/23 11:57:14;;;;;;;7.27;6.87;;;21.00;61.00;;;;;;5031070;28;20472;-63
2022/11/23 11:59:43;;;;;;;5.53;5.23;;;21.00;60.80;;;;;;5030996;28;20609;-62
2022/11/23 12:02:19;;;;;;;5.10;5.00;;;21.00;60.70;;;;;;5030845;28;20489;-60
2022/11/23 12:04:55;;;;;;;5.40;4.90;;;21.00;60.60;;;;;;5031079;28;20536;-58
2022/11/23 12:07:28;;;;;;;5.87;5.57;;;21.00;60.50;;;;;;5030845;28;20479;-59
2022/11/23 12:10:01;;;;;;;5.50;5.30;;;21.00;60.40;;;;;;5031226;28;20544;-62
2022/11/23 12:12:31;;;;;;;5.33;5.13;;;21.00;60.30;;;;;;5031094;28;20445;-61
2022/11/23 12:14:58;;;;;;;5.20;5.10;;;21.00;60.30;;;;;;5034768;28;20480;-60
2022/11/23 12:17:54;;;;;;;5.27;5.17;;;20.90;60.00;;;;;;5034538;28;20522;-60
2022/11/23 12:20:27;;;;;;;5.80;5.60;;;21.00;60.10;;;;;;5034585;28;20480;-63
2022/11/23 12:23:08;;;;;;;5.40;5.10;;;20.90;60.70;;;;;;5034754;28;20572;-63
2022/11/23 12:25:37;;;;;;;5.00;4.90;;;20.90;59.90;;;;;;5035162;28;20452;-60
2022/11/23 12:28:24;;;;;;;5.17;5.07;;;20.90;59.90;;;;;;5034449;28;20479;-62
2022/11/23 12:31:02;;;;;;;5.10;4.90;;;20.90;59.90;;;;;;5034317;28;20540;-63
2022/11/23 12:33:53;;;;;;;5.50;5.30;;;20.90;59.80;;;;;;5034296;28;21012;-60
2022/11/23 12:36:41;;;;;;;5.60;5.40;;;20.90;59.80;;;;;;5032805;28;20516;-62
2022/11/23 12:39:22;;;;;;;5.87;5.57;;;20.90;59.80;;;;;;5034228;28;20441;-61
2022/11/23 12:41:56;;;;;;;5.30;5.10;;;20.80;59.70;;;;;;5033870;28;20527;-59
2022/11/23 12:44:56;;;;;;;5.47;5.27;;;20.80;59.70;;;;;;5034483;28;20943;-60
2022/11/23 12:47:32;;;;;;;5.07;4.90;;;20.80;59.60;;;;;;5033977;28;20465;-60
2022/11/23 12:50:06;;;;;;;4.80;4.70;;;20.80;59.60;;;;;;5034055;28;20499;-60
2022/11/23 12:52:47;;;;;;;4.90;4.80;;;20.80;60.10;;;;;;5033786;28;20508;-58
2022/11/23 12:55:23;;;;;;;5.93;5.63;;;20.80;59.50;;;;;;5033978;28;20995;-60
2022/11/23 12:57:58;;;;;;;5.87;5.47;;;20.80;59.40;;;;;;5033720;28;20979;-60
2022/11/23 13:00:31;;;;;;;4.80;4.70;;;20.80;59.40;;;;;;5033879;28;20524;-59
2022/11/23 13:03:33;;;;;;;4.77;4.67;;;20.80;59.40;;;;;;5033723;28;20571;-60
2022/11/23 13:09:29;;;;;;;4.67;4.57;;;20.80;59.30;;;;;;5069876;28;20965;-64
2022/11/23 13:12:12;;;;;;;5.00;4.80;;;20.80;59.30;;;;;;5053679;28;20454;-64
2022/11/23 13:14:45;;;;;;;4.57;4.47;;;20.80;59.20;;;;;;5053862;28;20547;-62